Rushville, New York
Current Conditions -  °F | °C
As of 10:53 AM on Saturday 22 Nov 2014 (Local Time) from KPEO Reporting Station
Overcast Overcast  
Wind Chill: 24°   Ceiling: 6000
Heat Index: 35°   Visibility: 10mi
Dew Point:   Wind: 22mph
Humidity: 34%   Direction: 200°SSW
Pressure: 30.16"   Gusts: 28mph
Location:  42.76°N, 77.23°W
Report Text: KPEO 221553Z AUTO 20019G24KT 10SM OVC060 02/M13 A3016 RMK AO2 SLP224 T00171128
Loading
Personal Weather Stations






























Interactive Weather Map New forecast layout! Learn more

10-Day Weather Forecast

Advertisements
Track Severe Weather on mobile